Bardolph, Illinois
Current Conditions -  °F | °C
As of 6:15 PM on Friday 19 Dec 2014 (Local Time) from KMQB Reporting Station
Overcast Overcast  
Wind Chill: 29°   Ceiling: 5500
Heat Index: 29°   Visibility: 7mi
Dew Point: 26°   Wind: 3mph
Humidity: 90%   Direction: 80°E
Pressure: 30.29"   Gusts: NA
Location:  40.5°N, 90.56°W
Report Text: KMQB 200015Z AUTO 08003KT 7SM OVC055 M02/M03 A3029 RMK AO2 T10161031
Loading
Personal Weather Stations






























Interactive Weather Map New forecast layout! Learn more

10-Day Weather Forecast

Advertisements
Track Severe Weather on mobile